Time;durP1;ratioP1;P1;durP2;ratioP2;P2;SDS_P1;SDS_P2;PMS_P1;PMS_P2;Temp;Humidity;BMP_temperature;BMP_pressure;BME280_temperature;BME280_humidity;BME280_pressure;Samples;Min_cycle;Max_cycle;Signal;HPM_P1;HPM_P2
2023/06/02 00:02:14;;;;;;;;;;;19.20;82.10;;;;;;5116912;28;20367;-96
2023/06/02 00:04:40;;;;;;;;;;;19.00;83.60;;;;;;5117029;28;20002;-96
2023/06/02 00:07:07;;;;;;;;;;;19.00;83.90;;;;;;5116877;28;19957;-96
2023/06/02 00:09:37;;;;;;;;;;;19.20;83.00;;;;;;5117393;28;19930;-96
2023/06/02 00:12:02;;;;;;;;;;;19.30;82.70;;;;;;5117107;28;19953;-96
2023/06/02 00:14:28;;;;;;;;;;;19.30;82.80;;;;;;5098434;28;19908;-96
2023/06/02 00:16:55;;;;;;;;;;;19.20;82.40;;;;;;5116989;28;20271;-96
2023/06/02 00:19:23;;;;;;;;;;;19.10;83.00;;;;;;5116936;28;19908;-96
2023/06/02 00:21:51;;;;;;;;;;;19.00;83.00;;;;;;5098195;28;19957;-96
2023/06/02 00:24:16;;;;;;;;;;;19.00;83.30;;;;;;5116801;28;19914;-96
2023/06/02 00:26:42;;;;;;;;;;;19.10;83.30;;;;;;5116486;28;20283;-96
2023/06/02 00:29:07;;;;;;;;;;;19.10;83.20;;;;;;5116755;28;20278;-96
2023/06/02 00:31:34;;;;;;;;;;;19.20;83.10;;;;;;5116223;28;19942;-96
2023/06/02 00:33:59;;;;;;;;;;;19.20;83.30;;;;;;5116646;28;19935;-96
2023/06/02 00:36:25;;;;;;;;;;;19.00;83.70;;;;;;5116375;28;20367;-96
2023/06/02 00:38:50;;;;;;;;;;;18.80;84.50;;;;;;5116821;28;20011;-96
2023/06/02 00:41:16;;;;;;;;;;;18.70;84.50;;;;;;5116133;28;20321;-96
2023/06/02 00:43:42;;;;;;;;;;;18.60;85.00;;;;;;5116068;28;19908;-96
2023/06/02 00:46:07;;;;;;;;;;;18.80;84.60;;;;;;5116669;28;19908;-96
2023/06/02 00:48:33;;;;;;;;;;;18.80;84.60;;;;;;5116055;28;20291;-96
2023/06/02 00:50:58;;;;;;;;;;;18.80;84.00;;;;;;5116206;28;20371;-96
2023/06/02 00:53:24;;;;;;;;;;;18.80;84.10;;;;;;5115967;28;19914;-96
2023/06/02 00:55:51;;;;;;;;;;;19.00;83.80;;;;;;5116459;28;20283;-96
2023/06/02 00:58:17;;;;;;;;;;;18.80;84.40;;;;;;5115855;28;19916;-96
2023/06/02 01:00:43;;;;;;;;;;;18.70;85.10;;;;;;5116049;28;19954;-96
2023/06/02 01:03:08;;;;;;;;;;;18.60;85.30;;;;;;5115783;28;19943;-96
2023/06/02 01:05:36;;;;;;;;;;;18.60;85.50;;;;;;5116035;28;19908;-96
2023/06/02 01:08:03;;;;;;;;;;;18.90;84.80;;;;;;5115712;28;20382;-96
2023/06/02 01:10:29;;;;;;;;;;;18.90;83.60;;;;;;5115870;28;19908;-96
2023/06/02 01:12:55;;;;;;;;;;;18.70;83.30;;;;;;5115612;28;20018;-96
2023/06/02 01:15:21;;;;;;;;;;;18.80;83.30;;;;;;5114992;28;19943;-96
2023/06/02 01:17:47;;;;;;;;;;;18.60;84.60;;;;;;5115733;28;19977;-96
2023/06/02 01:20:13;;;;;;;;;;;18.60;85.30;;;;;;5115739;28;19907;-96
2023/06/02 01:22:43;;;;;;;;;;;18.60;85.20;;;;;;5115623;28;19955;-96
2023/06/02 01:25:22;;;;;;;;;;;18.70;84.90;;;;;;5115909;28;19908;-96
2023/06/02 01:27:48;;;;;;;;;;;18.80;84.30;;;;;;5115578;28;19914;-96
2023/06/02 01:30:14;;;;;;;;;;;18.80;84.10;;;;;;5115371;28;19908;-96
2023/06/02 01:32:43;;;;;;;;;;;18.70;84.20;;;;;;5115500;28;19923;-96
2023/06/02 01:35:12;;;;;;;;;;;18.70;83.20;;;;;;5115115;28;19957;-96
2023/06/02 01:37:42;;;;;;;;;;;18.50;83.00;;;;;;5115668;28;19930;-96
2023/06/02 01:40:08;;;;;;;;;;;18.40;84.30;;;;;;5115059;28;19907;-97
2023/06/02 01:42:34;;;;;;;;;;;18.30;85.00;;;;;;5114967;28;20405;-96
2023/06/02 01:45:01;;;;;;;;;;;18.20;85.50;;;;;;5114970;28;19908;-96
2023/06/02 01:47:27;;;;;;;;;;;18.10;85.70;;;;;;5115223;28;19908;-96
2023/06/02 01:49:52;;;;;;;;;;;18.20;85.90;;;;;;5114898;28;19957;-96
2023/06/02 01:52:18;;;;;;;;;;;18.20;86.20;;;;;;5114799;28;19931;-96
2023/06/02 01:54:43;;;;;;;;;;;18.30;86.20;;;;;;5115116;28;19912;-96
2023/06/02 01:57:09;;;;;;;;;;;18.30;86.00;;;;;;5115047;28;19939;-96
2023/06/02 01:59:35;;;;;;;;;;;18.30;85.70;;;;;;5115010;28;20071;-96
2023/06/02 02:02:01;;;;;;;;;;;18.10;85.30;;;;;;5114645;28;19918;-96
2023/06/02 02:04:27;;;;;;;;;;;18.10;85.90;;;;;;5114927;28;19908;-96
2023/06/02 02:06:53;;;;;;;;;;;18.00;86.40;;;;;;5114899;28;19960;-96
2023/06/02 02:09:18;;;;;;;;;;;17.90;86.50;;;;;;5114617;28;19957;-96
2023/06/02 02:11:44;;;;;;;;;;;17.80;86.80;;;;;;5114845;28;20006;-96
2023/06/02 02:14:12;;;;;;;;;;;17.90;87.20;;;;;;5114482;28;19908;-96
2023/06/02 02:16:38;;;;;;;;;;;18.00;87.20;;;;;;5114780;28;19915;-96
2023/06/02 02:19:04;;;;;;;;;;;18.00;87.10;;;;;;5114470;28;19998;-96
2023/06/02 02:21:30;;;;;;;;;;;18.10;86.70;;;;;;5114631;28;20350;-96
2023/06/02 02:23:55;;;;;;;;;;;18.00;85.80;;;;;;5114371;28;19999;-96
2023/06/02 02:26:21;;;;;;;;;;;18.00;85.60;;;;;;5095940;28;20452;-96
2023/06/02 02:28:47;;;;;;;;;;;18.00;86.30;;;;;;5114613;28;20366;-96
2023/06/02 02:31:13;;;;;;;;;;;18.20;86.50;;;;;;5114293;28;19958;-96
2023/06/02 02:33:39;;;;;;;;;;;18.30;86.50;;;;;;5114591;28;19951;-96
2023/06/02 02:36:05;;;;;;;;;;;18.30;86.20;;;;;;5114293;28;20311;-96
2023/06/02 02:38:30;;;;;;;;;;;18.20;86.10;;;;;;5114533;28;20290;-96
2023/06/02 02:40:56;;;;;;;;;;;18.10;85.30;;;;;;5114411;28;19912;-96
2023/06/02 02:43:21;;;;;;;;;;;18.00;85.60;;;;;;5114129;28;19907;-96
2023/06/02 02:45:47;;;;;;;;;;;17.90;86.60;;;;;;5114445;28;19908;-96
2023/06/02 02:48:13;;;;;;;;;;;17.90;87.20;;;;;;5114435;28;19947;-96
2023/06/02 02:50:38;;;;;;;;;;;17.80;88.00;;;;;;5114370;28;19908;-96
2023/06/02 02:53:04;;;;;;;;;;;17.80;87.70;;;;;;5114064;28;19907;-96
2023/06/02 02:55:32;;;;;;;;;;;18.00;87.20;;;;;;5114416;28;19908;-96
2023/06/02 02:57:59;;;;;;;;;;;18.00;87.00;;;;;;5114065;28;19908;-96
2023/06/02 03:00:25;;;;;;;;;;;17.90;86.70;;;;;;5114317;28;19999;-96
2023/06/02 03:02:51;;;;;;;;;;;17.90;86.70;;;;;;5113968;28;19964;-96
2023/06/02 03:05:16;;;;;;;;;;;17.90;86.90;;;;;;5095732;28;19911;-96
2023/06/02 03:07:44;;;;;;;;;;;17.90;86.40;;;;;;5114524;28;19912;-96
2023/06/02 03:10:10;;;;;;;;;;;17.80;86.00;;;;;;5114203;28;19935;-96
2023/06/02 03:12:35;;;;;;;;;;;17.70;85.80;;;;;;5114478;28;19923;-96
2023/06/02 03:15:01;;;;;;;;;;;17.70;86.40;;;;;;5095646;28;19908;-96
2023/06/02 03:17:27;;;;;;;;;;;17.60;87.60;;;;;;5095605;28;20430;-96
2023/06/02 03:19:54;;;;;;;;;;;17.70;88.20;;;;;;5114133;28;19990;-96
2023/06/02 03:22:20;;;;;;;;;;;17.80;88.10;;;;;;5113743;28;19965;-96
2023/06/02 03:24:46;;;;;;;;;;;17.80;87.70;;;;;;5113862;28;19912;-96
2023/06/02 03:27:13;;;;;;;;;;;17.70;87.40;;;;;;5113928;28;19931;-96
2023/06/02 03:29:39;;;;;;;;;;;17.70;87.10;;;;;;5114320;28;19908;-96
2023/06/02 03:32:08;;;;;;;;;;;17.60;87.40;;;;;;5113560;28;19919;-96
2023/06/02 03:34:33;;;;;;;;;;;17.60;87.60;;;;;;5113662;28;19908;-96
2023/06/02 03:37:01;;;;;;;;;;;17.60;87.40;;;;;;5114290;28;19914;-96
2023/06/02 03:39:26;;;;;;;;;;;17.60;87.00;;;;;;5097558;28;19930;-96
2023/06/02 03:41:52;;;;;;;;;;;17.60;87.00;;;;;;5117502;28;20366;-96
2023/06/02 03:44:17;;;;;;;;;;;17.60;86.80;;;;;;5117274;28;19915;-96
2023/06/02 03:46:43;;;;;;;;;;;17.40;87.30;;;;;;5117710;28;20358;-96
2023/06/02 03:49:09;;;;;;;;;;;17.60;87.10;;;;;;5117564;28;19956;-96
2023/06/02 03:51:35;;;;;;;;;;;17.60;86.50;;;;;;5117290;28;19981;-96
2023/06/02 03:54:00;;;;;;;;;;;17.60;86.50;;;;;;5099532;28;19912;-96
2023/06/02 03:56:26;;;;;;;;;;;17.60;86.40;;;;;;5117079;28;20434;-96
2023/06/02 03:58:51;;;;;;;;;;;17.60;86.70;;;;;;5117612;28;19908;-96
2023/06/02 04:01:17;;;;;;;;;;;17.60;86.40;;;;;;5117225;28;19911;-96
2023/06/02 04:03:43;;;;;;;;;;;17.70;86.30;;;;;;5117282;28;19908;-96
2023/06/02 04:06:09;;;;;;;;;;;17.70;85.80;;;;;;5116928;28;19907;-96
2023/06/02 04:08:34;;;;;;;;;;;17.70;85.60;;;;;;5117177;28;20367;-96
2023/06/02 04:11:00;;;;;;;;;;;17.70;85.60;;;;;;5116816;28;19947;-96
2023/06/02 04:13:27;;;;;;;;;;;17.70;85.40;;;;;;5117049;28;19912;-96
2023/06/02 04:15:52;;;;;;;;;;;17.80;85.20;;;;;;5116734;28;19908;-96
2023/06/02 04:18:18;;;;;;;;;;;17.70;85.50;;;;;;5117279;28;19914;-95
2023/06/02 04:20:43;;;;;;;;;;;17.60;85.80;;;;;;5116571;28;19915;-96
2023/06/02 04:23:09;;;;;;;;;;;17.60;85.90;;;;;;5116936;28;19912;-96
2023/06/02 04:25:35;;;;;;;;;;;17.60;86.10;;;;;;5116548;28;20422;-96
2023/06/02 04:28:00;;;;;;;;;;;17.70;85.70;;;;;;5116762;28;19908;-96
2023/06/02 04:30:26;;;;;;;;;;;17.50;86.20;;;;;;5116293;28;19939;-96
2023/06/02 04:32:52;;;;;;;;;;;17.40;86.60;;;;;;5116427;28;20048;-96
2023/06/02 04:35:17;;;;;;;;;;;17.30;87.10;;;;;;5116933;28;19908;-96
2023/06/02 04:37:46;;;;;;;;;;;17.40;86.90;;;;;;5116340;28;20383;-96
2023/06/02 04:40:12;;;;;;;;;;;17.60;86.80;;;;;;5116556;28;19908;-96
2023/06/02 04:42:38;;;;;;;;;;;18.00;86.20;;;;;;5116152;28;20381;-96
2023/06/02 04:45:06;;;;;;;;;;;18.10;85.60;;;;;;5116450;28;19999;-96
2023/06/02 04:47:31;;;;;;;;;;;18.20;85.10;;;;;;5116143;28;19907;-96
2023/06/02 04:49:57;;;;;;;;;;;18.20;85.70;;;;;;5116330;28;19957;-96
2023/06/02 04:52:22;;;;;;;;;;;18.30;85.50;;;;;;5097684;28;20424;-96
2023/06/02 04:54:48;;;;;;;;;;;18.30;84.70;;;;;;5116558;28;20374;-96
2023/06/02 04:57:15;;;;;;;;;;;18.30;84.70;;;;;;5115954;28;20363;-96
2023/06/02 04:59:40;;;;;;;;;;;18.40;84.60;;;;;;5116075;28;19907;-96
2023/06/02 05:02:06;;;;;;;;;;;18.50;84.20;;;;;;5116393;28;19968;-96
2023/06/02 05:04:31;;;;;;;;;;;18.60;83.90;;;;;;5115752;28;19957;-95
2023/06/02 05:06:57;;;;;;;;;;;18.90;82.60;;;;;;5115922;28;19930;-96
2023/06/02 05:09:22;;;;;;;;;;;19.10;82.60;;;;;;5115847;28;20278;-96
2023/06/02 05:11:48;;;;;;;;;;;19.20;82.30;;;;;;5115697;28;20256;-96
2023/06/02 05:14:14;;;;;;;;;;;19.30;81.30;;;;;;5115771;28;19907;-96
2023/06/02 05:16:42;;;;;;;;;;;19.40;81.10;;;;;;5097230;28;20270;-96
2023/06/02 05:19:07;;;;;;;;;;;19.50;80.60;;;;;;5115715;28;19912;-96
2023/06/02 05:21:33;;;;;;;;;;;19.50;81.00;;;;;;5097094;28;19962;-96
2023/06/02 05:23:58;;;;;;;;;;;19.10;82.80;;;;;;5115428;28;20263;-96
2023/06/02 05:26:24;;;;;;;;;;;19.00;83.00;;;;;;5115485;28;20346;-96
2023/06/02 05:28:50;;;;;;;;;;;19.10;82.00;;;;;;5115579;28;19914;-96
2023/06/02 05:31:16;;;;;;;;;;;19.10;83.00;;;;;;5115160;28;20379;-96
2023/06/02 05:33:41;;;;;;;;;;;19.20;83.00;;;;;;5115851;28;19919;-96
2023/06/02 05:36:07;;;;;;;;;;;19.40;83.30;;;;;;5115446;28;19908;-96
2023/06/02 05:38:33;;;;;;;;;;;19.50;82.80;;;;;;5115427;28;19915;-96
2023/06/02 05:40:58;;;;;;;;;;;19.60;82.90;;;;;;5115051;28;20346;-96
2023/06/02 05:43:24;;;;;;;;;;;19.70;82.80;;;;;;5114923;28;19907;-96
2023/06/02 05:45:49;;;;;;;;;;;19.80;82.30;;;;;;5115317;28;20270;-96
2023/06/02 05:48:15;;;;;;;;;;;19.90;81.90;;;;;;5096695;28;20001;-96
2023/06/02 05:50:41;;;;;;;;;;;19.90;81.80;;;;;;5115429;28;20006;-96
2023/06/02 05:53:07;;;;;;;;;;;19.90;82.10;;;;;;5114908;28;20006;-96
2023/06/02 05:55:33;;;;;;;;;;;20.10;81.80;;;;;;5115147;28;20007;-95
2023/06/02 05:57:58;;;;;;;;;;;20.20;81.70;;;;;;5114759;28;19908;-96
2023/06/02 06:00:24;;;;;;;;;;;20.50;80.50;;;;;;5115313;28;19959;-96
2023/06/02 06:02:50;;;;;;;;;;;20.70;79.50;;;;;;5114503;28;19919;-96
2023/06/02 06:05:16;;;;;;;;;;;20.90;79.00;;;;;;5115008;28;20278;-96
2023/06/02 06:07:41;;;;;;;;;;;21.10;78.70;;;;;;5114634;28;19911;-96
2023/06/02 06:10:07;;;;;;;;;;;21.30;78.80;;;;;;5096319;28;19908;-96
2023/06/02 06:12:32;;;;;;;;;;;21.40;78.80;;;;;;5114821;28;19953;-96
2023/06/02 06:14:58;;;;;;;;;;;21.60;77.00;;;;;;5114844;28;19907;-96
2023/06/02 06:17:24;;;;;;;;;;;21.60;76.60;;;;;;5115059;28;19947;-96
2023/06/02 06:19:49;;;;;;;;;;;21.60;77.00;;;;;;5114467;28;19912;-96
2023/06/02 06:22:15;;;;;;;;;;;21.50;77.60;;;;;;5114659;28;20347;-96
2023/06/02 06:24:40;;;;;;;;;;;21.50;76.70;;;;;;5114387;28;20329;-96
2023/06/02 06:27:06;;;;;;;;;;;21.50;77.40;;;;;;5114721;28;20423;-96
2023/06/02 06:29:31;;;;;;;;;;;21.50;77.50;;;;;;5114328;28;19929;-96
2023/06/02 06:31:57;;;;;;;;;;;21.60;77.30;;;;;;5135539;22;19923;-96
2023/06/02 06:34:22;;;;;;;;;;;21.70;76.10;;;;;;5134810;28;19911;-96
2023/06/02 06:36:48;;;;;;;;;;;21.70;75.30;;;;;;5135008;28;19960;-96
2023/06/02 06:39:14;;;;;;;;;;;21.80;75.60;;;;;;5135391;28;20248;-96
2023/06/02 06:41:42;;;;;;;;;;;21.70;75.90;;;;;;5134662;28;19911;-96
2023/06/02 06:44:08;;;;;;;;;;;21.80;76.50;;;;;;5134728;28;19911;-96
2023/06/02 06:46:33;;;;;;;;;;;21.80;75.20;;;;;;5135008;28;20273;-96
2023/06/02 06:48:59;;;;;;;;;;;21.90;75.10;;;;;;5134978;28;19907;-96
2023/06/02 06:51:25;;;;;;;;;;;22.10;74.60;;;;;;5134944;28;19952;-96
2023/06/02 06:53:50;;;;;;;;;;;22.10;72.90;;;;;;5134959;28;19994;-96
2023/06/02 06:56:16;;;;;;;;;;;22.30;72.40;;;;;;5116314;28;19915;-96
2023/06/02 06:58:41;;;;;;;;;;;22.50;72.00;;;;;;5135181;28;19907;-96
2023/06/02 07:01:07;;;;;;;;;;;22.80;71.30;;;;;;5134759;28;19911;-96
2023/06/02 07:03:32;;;;;;;;;;;23.00;71.50;;;;;;5134845;28;19912;-96
2023/06/02 07:05:59;;;;;;;;;;;23.10;68.90;;;;;;5134557;28;19911;-96
2023/06/02 07:08:24;;;;;;;;;;;23.30;67.40;;;;;;5134848;28;20370;-96
2023/06/02 07:10:50;;;;;;;;;;;23.40;65.60;;;;;;5134483;28;19960;-96
2023/06/02 07:13:16;;;;;;;;;;;23.30;66.30;;;;;;5135131;27;19912;-96
2023/06/02 07:15:42;;;;;;;;;;;23.40;65.90;;;;;;5138793;27;19965;-96
2023/06/02 07:18:07;;;;;;;;;;;23.40;70.00;;;;;;5138714;27;20294;-96
2023/06/02 07:20:33;;;;;;;;;;;23.50;69.90;;;;;;5138439;27;19907;-96
2023/06/02 07:22:58;;;;;;;;;;;23.40;68.80;;;;;;5138541;27;20378;-96
2023/06/02 07:25:24;;;;;;;;;;;23.50;68.40;;;;;;5138300;27;19907;-96
2023/06/02 07:27:49;;;;;;;;;;;23.50;66.90;;;;;;5138584;27;19908;-96
2023/06/02 07:30:15;;;;;;;;;;;23.50;67.20;;;;;;5138121;27;20262;-96
2023/06/02 07:32:41;;;;;;;;;;;23.60;67.40;;;;;;5138839;27;19922;-96
2023/06/02 07:35:07;;;;;;;;;;;23.60;66.90;;;;;;5138467;27;20047;-96
2023/06/02 07:37:32;;;;;;;;;;;23.70;66.20;;;;;;5138706;27;19959;-96
2023/06/02 07:39:58;;;;;;;;;;;23.80;65.90;;;;;;5138096;27;19947;-96
2023/06/02 07:42:23;;;;;;;;;;;23.80;65.00;;;;;;5138105;27;20010;-96
2023/06/02 07:44:49;;;;;;;;;;;23.80;64.60;;;;;;5137940;27;20273;-96
2023/06/02 07:47:15;;;;;;;;;;;23.90;65.80;;;;;;5138257;27;20425;-96
2023/06/02 07:49:40;;;;;;;;;;;24.00;65.70;;;;;;5137865;27;20374;-96
2023/06/02 07:52:06;;;;;;;;;;;24.00;64.60;;;;;;5138095;27;19918;-96
2023/06/02 07:54:31;;;;;;;;;;;24.00;66.40;;;;;;5137785;27;20439;-96
2023/06/02 07:56:57;;;;;;;;;;;24.10;64.50;;;;;;5138283;27;19912;-96
2023/06/02 07:59:23;;;;;;;;;;;24.10;64.00;;;;;;5137653;27;19912;-96
2023/06/02 08:01:48;;;;;;;;;;;24.20;64.40;;;;;;5138134;27;19918;-96
2023/06/02 08:04:14;;;;;;;;;;;24.20;64.90;;;;;;5137556;27;19914;-96
2023/06/02 08:06:40;;;;;;;;;;;24.20;64.20;;;;;;5119099;27;19908;-96
2023/06/02 08:09:05;;;;;;;;;;;24.30;63.20;;;;;;5138077;27;19911;-96
2023/06/02 08:11:31;;;;;;;;;;;24.20;62.50;;;;;;5137439;27;19994;-96
2023/06/02 08:13:56;;;;;;;;;;;24.30;62.50;;;;;;5137705;27;19946;-96
2023/06/02 08:16:23;;;;;;;;;;;24.50;61.80;;;;;;5137528;27;20311;-96
2023/06/02 08:18:48;;;;;;;;;;;24.50;60.70;;;;;;5137792;27;19911;-96
2023/06/02 08:21:14;;;;;;;;;;;24.60;61.30;;;;;;5137609;27;19980;-96
2023/06/02 08:23:40;;;;;;;;;;;24.70;60.00;;;;;;5137911;27;19973;-96
2023/06/02 08:26:06;;;;;;;;;;;24.70;59.70;;;;;;5136855;27;19947;-96
2023/06/02 08:28:33;;;;;;;;;;;24.80;59.60;;;;;;5137638;27;19908;-96
2023/06/02 08:31:00;;;;;;;;;;;24.90;62.10;;;;;;5137122;27;19968;-96
2023/06/02 08:33:26;;;;;;;;;;;25.00;59.20;;;;;;5137655;27;19947;-96
2023/06/02 08:35:52;;;;;;;;;;;25.10;58.60;;;;;;5137401;27;19908;-96
2023/06/02 08:38:17;;;;;;;;;;;25.20;59.10;;;;;;5137477;27;19907;-96
2023/06/02 08:40:45;;;;;;;;;;;25.20;58.50;;;;;;5136841;27;20271;-96
2023/06/02 08:43:13;;;;;;;;;;;25.30;59.10;;;;;;5136717;27;19912;-96
2023/06/02 08:45:39;;;;;;;;;;;25.40;57.20;;;;;;5137282;27;19960;-96
2023/06/02 08:48:06;;;;;;;;;;;25.40;56.20;;;;;;5136671;27;20340;-96
2023/06/02 08:50:42;;;;;;;;;;;25.30;58.10;;;;;;5137315;27;19914;-96
2023/06/02 08:53:10;;;;;;;;;;;25.50;57.40;;;;;;5137040;27;19911;-96
2023/06/02 08:55:39;;;;;;;;;;;25.60;56.40;;;;;;5136784;27;19915;-96
2023/06/02 08:58:05;;;;;;;;;;;25.80;55.00;;;;;;5136753;27;20363;-96
2023/06/02 09:00:31;;;;;;;;;;;25.80;55.90;;;;;;5139777;27;19914;-96
2023/06/02 09:02:56;;;;;;;;;;;26.00;55.50;;;;;;5137890;27;20021;-96
2023/06/02 09:05:22;;;;;;;;;;;25.90;55.60;;;;;;5137794;27;19972;-96
2023/06/02 09:08:05;;;;;;;;;;;26.00;56.00;;;;;;5138515;27;19915;-96
2023/06/02 17:48:16;;;;;;;;;;;26.50;56.70;;;;;;5121423;27;19919;-95
2023/06/02 17:50:41;;;;;;;;;;;26.60;54.70;;;;;;5123513;28;20368;-96
2023/06/02 17:53:07;;;;;;;;;;;26.70;55.60;;;;;;5139535;22;19931;-96
2023/06/02 17:55:33;;;;;;;;;;;27.00;54.50;;;;;;5110305;28;19943;-96
2023/06/02 17:57:59;;;;;;;;;;;27.10;53.00;;;;;;5107976;28;19916;-96
2023/06/02 18:00:25;;;;;;;;;;;27.20;53.30;;;;;;5108932;28;19908;-96
2023/06/02 18:02:51;;;;;;;;;;;27.30;52.80;;;;;;5102055;28;20363;-96
2023/06/02 18:05:17;;;;;;;;;;;27.50;54.10;;;;;;5122638;28;19908;-96
2023/06/02 18:07:43;;;;;;;;;;;27.40;55.60;;;;;;5120563;28;19908;-96
2023/06/02 18:10:09;;;;;;;;;;;27.10;52.10;;;;;;5100183;28;20275;-96
2023/06/02 18:12:35;;;;;;;;;;;26.80;51.20;;;;;;5111760;28;19908;-96
2023/06/02 18:15:00;;;;;;;;;;;26.70;49.60;;;;;;5111603;28;20333;-96
2023/06/02 18:17:26;;;;;;;;;;;26.40;48.90;;;;;;5111828;28;19919;-96
2023/06/02 18:19:52;;;;;;;;;;;26.10;48.60;;;;;;5174478;22;19925;-94
